Emine Anne — TCBX9 — position and weather

sailwx.info

Track history (hours):
 
Tides and Currents Weather Stations Pressure Air Temp Water Temp Dewpoint Dewpoint Depression Visibility Wind Speed Wind Dir Waves Ship Positions

Emine Anne

Last reported at 2017-Apr-23 20:26 UTC. Time now 2017-Apr-23 21:49 UTC.
Position N 37°46' E 015°35'.

Length 69 m; draft 4.2 m.

Type: Cargo ship. MMSI: 271002305.

Date/timePositionNaut miles runAvg speedWind from/ knotsBaromVisibWave heightAir tempDewpointWater temp
2017-Apr-23 20:26N 37°46' E 015°35'4 9.6
2017-Apr-23 20:00N 37°50' E 015°36'4 8.1
2017-Apr-23 19:31N 37°53' E 015°39'4 8.4
2017-Apr-23 19:01N 37°53' E 015°45'6 8.8
2017-Apr-23 18:18N 37°53' E 015°53'2 8.2
2017-Apr-23 18:00N 37°52' E 015°55'  
2017-Apr-19 19:29N 44°36' E 014°10'4 9.3
2017-Apr-19 19:01N 44°39' E 014°07'5 8.2
2017-Apr-19 18:26N 44°42' E 014°02'4 8.7
2017-Apr-19 17:59N 44°43' E 013°57'4 7.8
2017-Apr-19 17:30N 44°44' E 013°52'4 7.8
2017-Apr-19 17:00N 44°46' E 013°47'4 8.5
2017-Apr-19 16:30N 44°48' E 013°42'5 9.0
2017-Apr-19 16:00N 44°52' E 013°39'5 9.1
2017-Apr-19 15:30N 44°57' E 013°37'5 9.1
2017-Apr-19 15:00N 45°01' E 013°35'5 9.2
2017-Apr-19 14:30N 45°05' E 013°32'9 9.2
2017-Apr-19 13:31N 45°14' E 013°27'5 9.0
2017-Apr-19 13:01N 45°18' E 013°25'5 9.0
2017-Apr-19 12:30N 45°22' E 013°23'4 8.9
2017-Apr-19 12:00N 45°26' E 013°20'5 9.0
2017-Apr-19 11:30N 45°30' E 013°18'4 8.8
2017-Apr-19 11:00N 45°35' E 013°16'4 9.0
2017-Apr-19 10:30N 45°39' E 013°16'4 7.7
2017-Apr-19 10:01N 45°43' E 013°15'4 7.1
2017-Apr-19 09:30N 45°46' E 013°15'2 2.9
2017-Apr-19 08:58N 45°48' E 013°14'0 0.0
2017-Apr-19 08:27N 45°48' E 013°14'0 0.0
2017-Apr-19 07:51N 45°48' E 013°14'0 0.0
2017-Apr-19 07:28N 45°48' E 013°14'0 0.0
2017-Apr-19 06:58N 45°48' E 013°14'0 0.0
2017-Apr-19 06:13N 45°48' E 013°14'0 0.0
2017-Apr-19 05:58N 45°48' E 013°14'0 0.0
2017-Apr-19 05:30N 45°48' E 013°14'0 0.0
2017-Apr-19 05:00N 45°48' E 013°14'0 0.0
2017-Apr-19 04:27N 45°48' E 013°14'0 0.0
2017-Apr-19 04:00N 45°48' E 013°14'0 0.0
2017-Apr-19 03:28N 45°48' E 013°14'0 0.0
2017-Apr-19 02:52N 45°48' E 013°14'0 0.0
2017-Apr-19 02:25N 45°48' E 013°14'0 0.0
2017-Apr-19 01:53N 45°48' E 013°14'0 0.0
2017-Apr-19 01:29N 45°48' E 013°14'0 0.0
2017-Apr-19 00:48N 45°48' E 013°14'0 0.0
2017-Apr-19 00:27N 45°48' E 013°14'0 0.0
2017-Apr-18 23:58N 45°48' E 013°14'0 0.0
2017-Apr-18 23:28N 45°48' E 013°14'0 0.0
2017-Apr-18 22:49N 45°48' E 013°14'0 0.0
2017-Apr-18 22:30N 45°48' E 013°14'0 0.0
2017-Apr-18 21:51N 45°48' E 013°14'0 0.0
2017-Apr-18 21:20N 45°48' E 013°14'0 0.0
2017-Apr-18 20:59N 45°48' E 013°14'0 0.0
2017-Apr-18 20:28N 45°48' E 013°14'0 0.0
2017-Apr-18 19:58N 45°48' E 013°14'0 0.0
2017-Apr-18 19:28N 45°48' E 013°14'0 0.0
2017-Apr-18 18:58N 45°48' E 013°14'0 0.0
2017-Apr-18 18:22N 45°48' E 013°14'0 0.0
2017-Apr-18 18:00N 45°48' E 013°14'0 0.0
2017-Apr-18 17:22N 45°48' E 013°14'0 0.0
2017-Apr-18 16:59N 45°48' E 013°14'0 0.0
2017-Apr-18 16:26N 45°48' E 013°14'0 0.0
2017-Apr-18 15:57N 45°48' E 013°14'0 0.0
2017-Apr-18 15:21N 45°48' E 013°14'0 0.0
2017-Apr-18 15:00N 45°48' E 013°14'0 0.0
2017-Apr-18 14:30N 45°48' E 013°14'0 0.0
2017-Apr-18 13:18N 45°48' E 013°14'0 0.0
2017-Apr-18 13:00N 45°48' E 013°14'0 0.0
2017-Apr-18 12:30N 45°48' E 013°14'0 0.0
2017-Apr-18 12:00N 45°48' E 013°14'0 0.0
2017-Apr-18 11:27N 45°48' E 013°14'0 0.0
2017-Apr-18 11:00N 45°48' E 013°14'0 0.0
2017-Apr-18 10:21N 45°48' E 013°14'0 0.0
2017-Apr-18 10:00N 45°48' E 013°14'0 0.0
2017-Apr-18 09:28N 45°48' E 013°14'0 0.0
2017-Apr-18 08:52N 45°48' E 013°14'0 0.0
2017-Apr-18 08:28N 45°48' E 013°14'0 0.0
2017-Apr-18 07:59N 45°48' E 013°14'0 0.0
2017-Apr-18 07:24N 45°48' E 013°14'0 0.0
2017-Apr-18 07:00N 45°48' E 013°14'0 0.0
2017-Apr-18 06:26N 45°48' E 013°14'0 0.0
2017-Apr-18 05:56N 45°48' E 013°14'0 0.0
2017-Apr-18 05:13N 45°48' E 013°14'0 0.0
2017-Apr-18 04:58N 45°48' E 013°14'0 0.0
2017-Apr-18 04:29N 45°48' E 013°14'0 0.0
2017-Apr-18 03:57N 45°48' E 013°14'0 0.0
2017-Apr-18 03:25N 45°48' E 013°14'0 0.0
2017-Apr-18 02:56N 45°48' E 013°14'0 0.0
2017-Apr-18 02:30N 45°48' E 013°14'0 0.0
2017-Apr-18 01:55N 45°48' E 013°14'0 0.0
2017-Apr-18 01:28N 45°48' E 013°14'0 0.0
2017-Apr-18 00:55N 45°48' E 013°14'0 0.0
2017-Apr-18 00:16N 45°48' E 013°14'0 0.0
2017-Apr-17 23:58N 45°48' E 013°14'0 0.0
2017-Apr-17 23:24N 45°48' E 013°14'0 0.0
2017-Apr-17 22:54N 45°48' E 013°14'0 0.0
2017-Apr-17 22:26N 45°48' E 013°14'0 0.0
2017-Apr-17 21:59N 45°48' E 013°14'0 0.0
2017-Apr-17 21:26N 45°48' E 013°14'0 0.0
2017-Apr-17 20:51N 45°48' E 013°14'0 0.0
2017-Apr-17 20:28N 45°48' E 013°14'0 0.0
2017-Apr-17 19:58N 45°48' E 013°14'0 0.0
2017-Apr-17 19:28N 45°48' E 013°14'0 0.0
2017-Apr-17 18:52N 45°48' E 013°14'0 0.0
2017-Apr-17 18:30N 45°48' E 013°14'0 0.0
2017-Apr-17 17:54N 45°48' E 013°14'0 0.0
2017-Apr-17 17:28N 45°48' E 013°14'0 0.0
2017-Apr-17 16:53N 45°48' E 013°14'0 0.0
2017-Apr-17 16:29N 45°48' E 013°14'0 0.0
2017-Apr-17 15:59N 45°48' E 013°14'0 0.0
2017-Apr-17 15:28N 45°48' E 013°14'0 0.0
2017-Apr-17 14:58N 45°48' E 013°14'0 0.0
2017-Apr-17 14:29N 45°48' E 013°14'0 0.0
2017-Apr-17 13:25N 45°48' E 013°14'0 0.0
2017-Apr-17 12:58N 45°48' E 013°14'0 0.0
2017-Apr-17 12:30N 45°48' E 013°14'0 0.0
2017-Apr-17 11:57N 45°48' E 013°14'0 0.0
2017-Apr-17 11:25N 45°48' E 013°14'0 0.0
2017-Apr-17 10:58N 45°48' E 013°14'0 0.0
2017-Apr-17 10:18N 45°48' E 013°14'0 0.0
2017-Apr-17 09:58N 45°48' E 013°14'0 0.0
2017-Apr-17 09:23N 45°48' E 013°14'0 0.0
2017-Apr-17 08:50N 45°48' E 013°14'0 0.0
2017-Apr-17 08:23N 45°48' E 013°14'0 0.0
2017-Apr-17 07:59N 45°48' E 013°14'0 0.0
2017-Apr-17 07:26N 45°48' E 013°14'0 0.0
2017-Apr-17 07:00N 45°48' E 013°14'0 0.0
2017-Apr-17 06:16N 45°48' E 013°14'0 0.0
2017-Apr-17 05:58N 45°48' E 013°14'0 0.0
2017-Apr-17 05:26N 45°48' E 013°14'0 0.0
2017-Apr-17 04:57N 45°48' E 013°14'0 0.0
2017-Apr-17 04:30N 45°48' E 013°14'0 0.0
2017-Apr-17 03:53N 45°48' E 013°14'0 0.0
2017-Apr-17 03:28N 45°48' E 013°14'0 0.0
2017-Apr-17 02:58N 45°48' E 013°14'0 0.0
2017-Apr-17 02:26N 45°48' E 013°14'0 0.0
2017-Apr-17 01:58N 45°48' E 013°14'0 0.0
2017-Apr-17 01:25N 45°48' E 013°14'0 0.0
2017-Apr-17 01:00N 45°48' E 013°14'0 0.0
2017-Apr-17 00:24N 45°48' E 013°14'0 0.0
2017-Apr-17 00:00N 45°48' E 013°14'0 0.0
2017-Apr-16 23:30N 45°48' E 013°14'0 0.0
2017-Apr-16 22:54N 45°48' E 013°14'0 0.0
2017-Apr-16 22:26N 45°48' E 013°14'0 0.0
2017-Apr-16 21:52N 45°48' E 013°14'0 0.0
2017-Apr-16 21:23N 45°48' E 013°14'0 0.0
2017-Apr-16 20:58N 45°48' E 013°14'0 0.0
2017-Apr-16 20:29N 45°48' E 013°14'0 0.0
2017-Apr-16 19:56N 45°48' E 013°14'0 0.0
2017-Apr-16 19:30N 45°48' E 013°14'0 0.0
2017-Apr-16 19:00N 45°48' E 013°14'0 0.0
2017-Apr-16 18:29N 45°48' E 013°14'0 0.0
2017-Apr-16 18:00N 45°48' E 013°14'0 0.0
2017-Apr-16 17:27N 45°48' E 013°14'0 0.0
2017-Apr-16 16:58N 45°48' E 013°14'0 0.0
2017-Apr-16 16:28N 45°48' E 013°14'0 0.0
2017-Apr-16 15:50N 45°48' E 013°14'0 0.0
2017-Apr-16 15:08N 45°48' E 013°14'0 0.0
2017-Apr-16 14:56N 45°48' E 013°14'0 0.0
2017-Apr-16 14:25N 45°48' E 013°14'0 0.0
2017-Apr-16 13:28N 45°48' E 013°14'0 0.0
2017-Apr-16 12:58N 45°48' E 013°14'0 0.0
2017-Apr-16 12:28N 45°48' E 013°14'0 0.0
2017-Apr-16 11:58N 45°48' E 013°14'0 0.0
2017-Apr-16 11:28N 45°48' E 013°14'0 0.0
2017-Apr-16 11:00N 45°48' E 013°14'0 0.0
2017-Apr-16 10:30N 45°48' E 013°14'0 0.0
2017-Apr-16 10:00N 45°48' E 013°14'0 0.0
2017-Apr-16 09:28N 45°48' E 013°14'0 0.0
2017-Apr-16 08:58N 45°48' E 013°14'0 0.0
2017-Apr-16 08:23N 45°48' E 013°14'0 0.0
2017-Apr-16 07:56N 45°48' E 013°14'0 0.0
2017-Apr-16 07:30N 45°48' E 013°14'0 0.0
2017-Apr-16 07:00N 45°48' E 013°14'0 0.0
2017-Apr-16 06:27N 45°48' E 013°14'0 0.0
2017-Apr-16 06:00N 45°48' E 013°14'0 0.0
2017-Apr-16 05:30N 45°48' E 013°14'0 0.0
2017-Apr-16 05:00N 45°48' E 013°14'0 0.0
2017-Apr-16 04:27N 45°48' E 013°14'0 0.0
2017-Apr-16 04:00N 45°48' E 013°14'0 0.0
2017-Apr-16 03:30N 45°48' E 013°14'0 0.0
2017-Apr-16 02:57N 45°48' E 013°14'0 0.0
2017-Apr-16 02:27N 45°48' E 013°14'0 0.0
2017-Apr-16 01:58N 45°48' E 013°14'0 0.0
2017-Apr-16 01:25N 45°48' E 013°14'0 0.0
2017-Apr-16 00:58N 45°48' E 013°14'0 0.0
2017-Apr-16 00:16N 45°48' E 013°14'0 0.0
2017-Apr-16 00:00N 45°48' E 013°14'0 0.0
2017-Apr-15 23:24N 45°48' E 013°14'0 0.0
2017-Apr-15 22:58N 45°48' E 013°14'0 0.0
2017-Apr-15 22:22N 45°48' E 013°14'0 0.0
2017-Apr-15 22:00N 45°48' E 013°14'0 0.0
2017-Apr-15 21:23N 45°48' E 013°14'0 0.0
2017-Apr-15 20:59N 45°48' E 013°14'0 0.0
2017-Apr-15 20:26N 45°48' E 013°14'0 0.0
2017-Apr-15 20:00N 45°48' E 013°14'0 0.0
2017-Apr-15 19:30N 45°48' E 013°14'0 0.0
2017-Apr-15 18:56N 45°48' E 013°14'0 0.0
2017-Apr-15 18:28N 45°48' E 013°14'0 0.0
2017-Apr-15 17:50N 45°48' E 013°14'0 0.0
2017-Apr-15 17:29N 45°48' E 013°14'0 0.0
2017-Apr-15 16:59N 45°48' E 013°14'0 0.0
2017-Apr-15 16:29N 45°48' E 013°14'0 0.0
2017-Apr-15 15:45N 45°48' E 013°14'0 0.0
2017-Apr-15 15:30N 45°48' E 013°14'0 0.0
2017-Apr-15 14:58N 45°48' E 013°14'0 0.0
2017-Apr-15 14:24N 45°48' E 013°14'0 0.0
2017-Apr-15 13:29N 45°48' E 013°14'0 0.0
2017-Apr-15 12:50N 45°48' E 013°14'0 0.0
2017-Apr-15 12:26N 45°48' E 013°14'0 0.0
2017-Apr-15 11:59N 45°48' E 013°14'0 0.0
2017-Apr-15 11:27N 45°48' E 013°14'0 0.0
2017-Apr-15 11:00N 45°48' E 013°14'0 0.0
2017-Apr-15 10:27N 45°48' E 013°14'0 0.0
2017-Apr-15 10:00N 45°48' E 013°14'0 0.0
2017-Apr-15 09:09N 45°48' E 013°14'0 0.0
2017-Apr-15 09:00N 45°48' E 013°14'0 0.0
2017-Apr-15 08:27N 45°48' E 013°14'0 0.0
2017-Apr-15 07:45N 45°48' E 013°14'0 0.0
2017-Apr-15 07:30N 45°48' E 013°14'0 0.0
2017-Apr-15 06:57N 45°48' E 013°14'0 0.0
2017-Apr-15 06:28N 45°48' E 013°14'0 0.0
2017-Apr-15 05:58N 45°48' E 013°14'0 0.0
2017-Apr-15 05:16N 45°48' E 013°14'0 0.0
2017-Apr-15 04:49N 45°48' E 013°14'0 0.0
2017-Apr-15 04:25N 45°48' E 013°14'0 0.0
2017-Apr-15 03:58N 45°48' E 013°14'0 0.0
2017-Apr-15 03:28N 45°48' E 013°14'0 0.0
2017-Apr-15 02:56N 45°48' E 013°14'0 0.0
2017-Apr-15 02:29N 45°48' E 013°14'0 0.0
2017-Apr-15 01:50N 45°48' E 013°14'0 0.0
2017-Apr-15 01:29N 45°48' E 013°14'0 0.0
2017-Apr-15 00:58N 45°48' E 013°14'0 0.0
2017-Apr-15 00:28N 45°48' E 013°14'0 0.0
2017-Apr-15 00:00N 45°48' E 013°14'0 0.0
2017-Apr-14 23:30N 45°48' E 013°14'0 0.0
2017-Apr-14 22:55N 45°48' E 013°14'0 0.0
2017-Apr-14 22:28N 45°48' E 013°14'0 0.0
2017-Apr-14 22:00N 45°48' E 013°14'0 0.0
2017-Apr-14 21:30N 45°48' E 013°14'0 0.0
2017-Apr-14 20:52N 45°48' E 013°14'0 0.0
2017-Apr-14 20:24N 45°48' E 013°14'0 0.0
2017-Apr-14 20:00N 45°48' E 013°14'0 0.0
2017-Apr-14 19:26N 45°48' E 013°14'0 0.0
2017-Apr-14 18:53N 45°48' E 013°14'0 0.0
2017-Apr-14 18:30N 45°48' E 013°14'0 0.0
2017-Apr-14 18:00N 45°48' E 013°14'0 0.0
2017-Apr-14 17:30N 45°48' E 013°14'0 0.0
2017-Apr-14 16:55N 45°48' E 013°14'0 0.0
2017-Apr-14 16:29N 45°48' E 013°14'0 0.0
2017-Apr-14 15:59N 45°48' E 013°14'0 0.0
2017-Apr-14 15:13N 45°48' E 013°14'0 0.0
2017-Apr-14 14:53N 45°48' E 013°14'0 0.0
2017-Apr-14 14:28N 45°48' E 013°14'0 0.0
2017-Apr-14 13:25N 45°48' E 013°14'0 0.0
2017-Apr-14 12:53N 45°48' E 013°14'0 0.0
2017-Apr-14 12:30N 45°48' E 013°14'0 0.0
2017-Apr-14 11:59N 45°48' E 013°14'0 0.0
2017-Apr-14 11:28N 45°48' E 013°14'0 0.0
2017-Apr-14 10:57N 45°48' E 013°14'0 0.0
2017-Apr-14 10:30N 45°48' E 013°14'0 0.0
2017-Apr-14 10:00N 45°48' E 013°14'0 0.0
2017-Apr-14 09:30N 45°48' E 013°14'0 0.0
2017-Apr-14 08:59N 45°48' E 013°14'0 0.0
2017-Apr-14 08:29N 45°48' E 013°14'1 2.9
2017-Apr-14 08:01N 45°47' E 013°15'4 8.7
2017-Apr-14 07:30N 45°42' E 013°15'4 7.4
2017-Apr-14 07:00N 45°39' E 013°16'4 8.5
2017-Apr-14 06:30N 45°35' E 013°17'4 8.7
2017-Apr-14 06:00N 45°31' E 013°14'5 9.0
2017-Apr-14 05:30N 45°26' E 013°11'5 9.2
2017-Apr-14 05:00N 45°22' E 013°11'5 9.8
2017-Apr-14 04:30N 45°17' E 013°13'5 9.7
2017-Apr-14 04:00N 45°12' E 013°15'5 9.4
2017-Apr-14 03:30N 45°08' E 013°16'5 9.1
2017-Apr-14 03:01N 45°03' E 013°18'4 8.8
2017-Apr-14 02:30N 44°59' E 013°19'4 8.9
2017-Apr-14 02:00N 44°55' E 013°23'4 8.7
2017-Apr-14 01:30N 44°52' E 013°26'4 8.9
2017-Apr-14 01:00N 44°48' E 013°30'4 9.0
2017-Apr-14 00:30N 44°45' E 013°34'5 9.0
2017-Apr-14 00:00N 44°41' E 013°37'4 8.8
2017-Apr-13 23:30N 44°37' E 013°41'5 9.0
2017-Apr-13 23:00N 44°34' E 013°44'4 9.0
2017-Apr-13 22:30N 44°30' E 013°48'5 9.1
2017-Apr-13 22:00N 44°26' E 013°51'5 9.3
2017-Apr-13 21:30N 44°22' E 013°55'5 9.3
2017-Apr-13 21:00N 44°18' E 013°58'5 9.4
2017-Apr-13 20:31N 44°14' E 014°02'  
Track history (hours):
 
Tides and Currents Weather Stations Pressure Air Temp Water Temp Dewpoint Dewpoint Depression Visibility Wind Speed Wind Dir Waves Ship Positions

Emine Anne

Last reported at 2017-Apr-23 20:26 UTC. Time now 2017-Apr-23 21:49 UTC.
Position N 37°46' E 015°35'.

Length 69 m; draft 4.2 m.

Type: Cargo ship. MMSI: 271002305.

Date/timePositionNaut miles runAvg speedWind from/ knotsBaromVisibWave heightAir tempDewpointWater temp
2017-Apr-23 20:26N 37°46' E 015°35'4 9.6
2017-Apr-23 20:00N 37°50' E 015°36'4 8.1
2017-Apr-23 19:31N 37°53' E 015°39'4 8.4
2017-Apr-23 19:01N 37°53' E 015°45'6 8.8
2017-Apr-23 18:18N 37°53' E 015°53'2 8.2
2017-Apr-23 18:00N 37°52' E 015°55'  
2017-Apr-19 19:29N 44°36' E 014°10'4 9.3
2017-Apr-19 19:01N 44°39' E 014°07'5 8.2
2017-Apr-19 18:26N 44°42' E 014°02'4 8.7
2017-Apr-19 17:59N 44°43' E 013°57'4 7.8
2017-Apr-19 17:30N 44°44' E 013°52'4 7.8
2017-Apr-19 17:00N 44°46' E 013°47'4 8.5
2017-Apr-19 16:30N 44°48' E 013°42'5 9.0
2017-Apr-19 16:00N 44°52' E 013°39'5 9.1
2017-Apr-19 15:30N 44°57' E 013°37'5 9.1
2017-Apr-19 15:00N 45°01' E 013°35'5 9.2
2017-Apr-19 14:30N 45°05' E 013°32'9 9.2
2017-Apr-19 13:31N 45°14' E 013°27'5 9.0
2017-Apr-19 13:01N 45°18' E 013°25'5 9.0
2017-Apr-19 12:30N 45°22' E 013°23'4 8.9
2017-Apr-19 12:00N 45°26' E 013°20'5 9.0
2017-Apr-19 11:30N 45°30' E 013°18'4 8.8
2017-Apr-19 11:00N 45°35' E 013°16'4 9.0
2017-Apr-19 10:30N 45°39' E 013°16'4 7.7
2017-Apr-19 10:01N 45°43' E 013°15'4 7.1
2017-Apr-19 09:30N 45°46' E 013°15'2 2.9
2017-Apr-19 08:58N 45°48' E 013°14'0 0.0
2017-Apr-19 08:27N 45°48' E 013°14'0 0.0
2017-Apr-19 07:51N 45°48' E 013°14'0 0.0
2017-Apr-19 07:28N 45°48' E 013°14'0 0.0
2017-Apr-19 06:58N 45°48' E 013°14'0 0.0
2017-Apr-19 06:13N 45°48' E 013°14'0 0.0
2017-Apr-19 05:58N 45°48' E 013°14'0 0.0
2017-Apr-19 05:30N 45°48' E 013°14'0 0.0
2017-Apr-19 05:00N 45°48' E 013°14'0 0.0
2017-Apr-19 04:27N 45°48' E 013°14'0 0.0
2017-Apr-19 04:00N 45°48' E 013°14'0 0.0
2017-Apr-19 03:28N 45°48' E 013°14'0 0.0
2017-Apr-19 02:52N 45°48' E 013°14'0 0.0
2017-Apr-19 02:25N 45°48' E 013°14'0 0.0
2017-Apr-19 01:53N 45°48' E 013°14'0 0.0
2017-Apr-19 01:29N 45°48' E 013°14'0 0.0
2017-Apr-19 00:48N 45°48' E 013°14'0 0.0
2017-Apr-19 00:27N 45°48' E 013°14'0 0.0
2017-Apr-18 23:58N 45°48' E 013°14'0 0.0
2017-Apr-18 23:28N 45°48' E 013°14'0 0.0
2017-Apr-18 22:49N 45°48' E 013°14'0 0.0
2017-Apr-18 22:30N 45°48' E 013°14'0 0.0
2017-Apr-18 21:51N 45°48' E 013°14'0 0.0
2017-Apr-18 21:20N 45°48' E 013°14'0 0.0
2017-Apr-18 20:59N 45°48' E 013°14'0 0.0
2017-Apr-18 20:28N 45°48' E 013°14'0 0.0
2017-Apr-18 19:58N 45°48' E 013°14'0 0.0
2017-Apr-18 19:28N 45°48' E 013°14'0 0.0
2017-Apr-18 18:58N 45°48' E 013°14'0 0.0
2017-Apr-18 18:22N 45°48' E 013°14'0 0.0
2017-Apr-18 18:00N 45°48' E 013°14'0 0.0
2017-Apr-18 17:22N 45°48' E 013°14'0 0.0
2017-Apr-18 16:59N 45°48' E 013°14'0 0.0
2017-Apr-18 16:26N 45°48' E 013°14'0 0.0
2017-Apr-18 15:57N 45°48' E 013°14'0 0.0
2017-Apr-18 15:21N 45°48' E 013°14'0 0.0
2017-Apr-18 15:00N 45°48' E 013°14'0 0.0
2017-Apr-18 14:30N 45°48' E 013°14'0 0.0
2017-Apr-18 13:18N 45°48' E 013°14'0 0.0
2017-Apr-18 13:00N 45°48' E 013°14'0 0.0
2017-Apr-18 12:30N 45°48' E 013°14'0 0.0
2017-Apr-18 12:00N 45°48' E 013°14'0 0.0
2017-Apr-18 11:27N 45°48' E 013°14'0 0.0
2017-Apr-18 11:00N 45°48' E 013°14'0 0.0
2017-Apr-18 10:21N 45°48' E 013°14'0 0.0
2017-Apr-18 10:00N 45°48' E 013°14'0 0.0
2017-Apr-18 09:28N 45°48' E 013°14'0 0.0
2017-Apr-18 08:52N 45°48' E 013°14'0 0.0
2017-Apr-18 08:28N 45°48' E 013°14'0 0.0
2017-Apr-18 07:59N 45°48' E 013°14'0 0.0
2017-Apr-18 07:24N 45°48' E 013°14'0 0.0
2017-Apr-18 07:00N 45°48' E 013°14'0 0.0
2017-Apr-18 06:26N 45°48' E 013°14'0 0.0
2017-Apr-18 05:56N 45°48' E 013°14'0 0.0
2017-Apr-18 05:13N 45°48' E 013°14'0 0.0
2017-Apr-18 04:58N 45°48' E 013°14'0 0.0
2017-Apr-18 04:29N 45°48' E 013°14'0 0.0
2017-Apr-18 03:57N 45°48' E 013°14'0 0.0
2017-Apr-18 03:25N 45°48' E 013°14'0 0.0
2017-Apr-18 02:56N 45°48' E 013°14'0 0.0
2017-Apr-18 02:30N 45°48' E 013°14'0 0.0
2017-Apr-18 01:55N 45°48' E 013°14'0 0.0
2017-Apr-18 01:28N 45°48' E 013°14'0 0.0
2017-Apr-18 00:55N 45°48' E 013°14'0 0.0
2017-Apr-18 00:16N 45°48' E 013°14'0 0.0
2017-Apr-17 23:58N 45°48' E 013°14'0 0.0
2017-Apr-17 23:24N 45°48' E 013°14'0 0.0
2017-Apr-17 22:54N 45°48' E 013°14'0 0.0
2017-Apr-17 22:26N 45°48' E 013°14'0 0.0
2017-Apr-17 21:59N 45°48' E 013°14'0 0.0
2017-Apr-17 21:26N 45°48' E 013°14'0 0.0
2017-Apr-17 20:51N 45°48' E 013°14'0 0.0
2017-Apr-17 20:28N 45°48' E 013°14'0 0.0
2017-Apr-17 19:58N 45°48' E 013°14'0 0.0
2017-Apr-17 19:28N 45°48' E 013°14'0 0.0
2017-Apr-17 18:52N 45°48' E 013°14'0 0.0
2017-Apr-17 18:30N 45°48' E 013°14'0 0.0
2017-Apr-17 17:54N 45°48' E 013°14'0 0.0
2017-Apr-17 17:28N 45°48' E 013°14'0 0.0
2017-Apr-17 16:53N 45°48' E 013°14'0 0.0
2017-Apr-17 16:29N 45°48' E 013°14'0 0.0
2017-Apr-17 15:59N 45°48' E 013°14'0 0.0
2017-Apr-17 15:28N 45°48' E 013°14'0 0.0
2017-Apr-17 14:58N 45°48' E 013°14'0 0.0
2017-Apr-17 14:29N 45°48' E 013°14'0 0.0
2017-Apr-17 13:25N 45°48' E 013°14'0 0.0
2017-Apr-17 12:58N 45°48' E 013°14'0 0.0
2017-Apr-17 12:30N 45°48' E 013°14'0 0.0
2017-Apr-17 11:57N 45°48' E 013°14'0 0.0
2017-Apr-17 11:25N 45°48' E 013°14'0 0.0
2017-Apr-17 10:58N 45°48' E 013°14'0 0.0
2017-Apr-17 10:18N 45°48' E 013°14'0 0.0
2017-Apr-17 09:58N 45°48' E 013°14'0 0.0
2017-Apr-17 09:23N 45°48' E 013°14'0 0.0
2017-Apr-17 08:50N 45°48' E 013°14'0 0.0
2017-Apr-17 08:23N 45°48' E 013°14'0 0.0
2017-Apr-17 07:59N 45°48' E 013°14'0 0.0
2017-Apr-17 07:26N 45°48' E 013°14'0 0.0
2017-Apr-17 07:00N 45°48' E 013°14'0 0.0
2017-Apr-17 06:16N 45°48' E 013°14'0 0.0
2017-Apr-17 05:58N 45°48' E 013°14'0 0.0
2017-Apr-17 05:26N 45°48' E 013°14'0 0.0
2017-Apr-17 04:57N 45°48' E 013°14'0 0.0
2017-Apr-17 04:30N 45°48' E 013°14'0 0.0
2017-Apr-17 03:53N 45°48' E 013°14'0 0.0
2017-Apr-17 03:28N 45°48' E 013°14'0 0.0
2017-Apr-17 02:58N 45°48' E 013°14'0 0.0
2017-Apr-17 02:26N 45°48' E 013°14'0 0.0
2017-Apr-17 01:58N 45°48' E 013°14'0 0.0
2017-Apr-17 01:25N 45°48' E 013°14'0 0.0
2017-Apr-17 01:00N 45°48' E 013°14'0 0.0
2017-Apr-17 00:24N 45°48' E 013°14'0 0.0
2017-Apr-17 00:00N 45°48' E 013°14'0 0.0
2017-Apr-16 23:30N 45°48' E 013°14'0 0.0
2017-Apr-16 22:54N 45°48' E 013°14'0 0.0
2017-Apr-16 22:26N 45°48' E 013°14'0 0.0
2017-Apr-16 21:52N 45°48' E 013°14'0 0.0
2017-Apr-16 21:23N 45°48' E 013°14'0 0.0
2017-Apr-16 20:58N 45°48' E 013°14'0 0.0
2017-Apr-16 20:29N 45°48' E 013°14'0 0.0
2017-Apr-16 19:56N 45°48' E 013°14'0 0.0
2017-Apr-16 19:30N 45°48' E 013°14'0 0.0
2017-Apr-16 19:00N 45°48' E 013°14'0 0.0
2017-Apr-16 18:29N 45°48' E 013°14'0 0.0
2017-Apr-16 18:00N 45°48' E 013°14'0 0.0
2017-Apr-16 17:27N 45°48' E 013°14'0 0.0
2017-Apr-16 16:58N 45°48' E 013°14'0 0.0
2017-Apr-16 16:28N 45°48' E 013°14'0 0.0
2017-Apr-16 15:50N 45°48' E 013°14'0 0.0
2017-Apr-16 15:08N 45°48' E 013°14'0 0.0
2017-Apr-16 14:56N 45°48' E 013°14'0 0.0
2017-Apr-16 14:25N 45°48' E 013°14'0 0.0
2017-Apr-16 13:28N 45°48' E 013°14'0 0.0
2017-Apr-16 12:58N 45°48' E 013°14'0 0.0
2017-Apr-16 12:28N 45°48' E 013°14'0 0.0
2017-Apr-16 11:58N 45°48' E 013°14'0 0.0
2017-Apr-16 11:28N 45°48' E 013°14'0 0.0
2017-Apr-16 11:00N 45°48' E 013°14'0 0.0
2017-Apr-16 10:30N 45°48' E 013°14'0 0.0
2017-Apr-16 10:00N 45°48' E 013°14'0 0.0
2017-Apr-16 09:28N 45°48' E 013°14'0 0.0
2017-Apr-16 08:58N 45°48' E 013°14'0 0.0
2017-Apr-16 08:23N 45°48' E 013°14'0 0.0
2017-Apr-16 07:56N 45°48' E 013°14'0 0.0
2017-Apr-16 07:30N 45°48' E 013°14'0 0.0
2017-Apr-16 07:00N 45°48' E 013°14'0 0.0
2017-Apr-16 06:27N 45°48' E 013°14'0 0.0
2017-Apr-16 06:00N 45°48' E 013°14'0 0.0
2017-Apr-16 05:30N 45°48' E 013°14'0 0.0
2017-Apr-16 05:00N 45°48' E 013°14'0 0.0
2017-Apr-16 04:27N 45°48' E 013°14'0 0.0
2017-Apr-16 04:00N 45°48' E 013°14'0 0.0
2017-Apr-16 03:30N 45°48' E 013°14'0 0.0
2017-Apr-16 02:57N 45°48' E 013°14'0 0.0
2017-Apr-16 02:27N 45°48' E 013°14'0 0.0
2017-Apr-16 01:58N 45°48' E 013°14'0 0.0
2017-Apr-16 01:25N 45°48' E 013°14'0 0.0
2017-Apr-16 00:58N 45°48' E 013°14'0 0.0
2017-Apr-16 00:16N 45°48' E 013°14'0 0.0
2017-Apr-16 00:00N 45°48' E 013°14'0 0.0
2017-Apr-15 23:24N 45°48' E 013°14'0 0.0
2017-Apr-15 22:58N 45°48' E 013°14'0 0.0
2017-Apr-15 22:22N 45°48' E 013°14'0 0.0
2017-Apr-15 22:00N 45°48' E 013°14'0 0.0
2017-Apr-15 21:23N 45°48' E 013°14'0 0.0
2017-Apr-15 20:59N 45°48' E 013°14'0 0.0
2017-Apr-15 20:26N 45°48' E 013°14'0 0.0
2017-Apr-15 20:00N 45°48' E 013°14'0 0.0
2017-Apr-15 19:30N 45°48' E 013°14'0 0.0
2017-Apr-15 18:56N 45°48' E 013°14'0 0.0
2017-Apr-15 18:28N 45°48' E 013°14'0 0.0
2017-Apr-15 17:50N 45°48' E 013°14'0 0.0
2017-Apr-15 17:29N 45°48' E 013°14'0 0.0
2017-Apr-15 16:59N 45°48' E 013°14'0 0.0
2017-Apr-15 16:29N 45°48' E 013°14'0 0.0
2017-Apr-15 15:45N 45°48' E 013°14'0 0.0
2017-Apr-15 15:30N 45°48' E 013°14'0 0.0
2017-Apr-15 14:58N 45°48' E 013°14'0 0.0
2017-Apr-15 14:24N 45°48' E 013°14'0 0.0
2017-Apr-15 13:29N 45°48' E 013°14'0 0.0
2017-Apr-15 12:50N 45°48' E 013°14'0 0.0
2017-Apr-15 12:26N 45°48' E 013°14'0 0.0
2017-Apr-15 11:59N 45°48' E 013°14'0 0.0
2017-Apr-15 11:27N 45°48' E 013°14'0 0.0
2017-Apr-15 11:00N 45°48' E 013°14'0 0.0
2017-Apr-15 10:27N 45°48' E 013°14'0 0.0
2017-Apr-15 10:00N 45°48' E 013°14'0 0.0
2017-Apr-15 09:09N 45°48' E 013°14'0 0.0
2017-Apr-15 09:00N 45°48' E 013°14'0 0.0
2017-Apr-15 08:27N 45°48' E 013°14'0 0.0
2017-Apr-15 07:45N 45°48' E 013°14'0 0.0
2017-Apr-15 07:30N 45°48' E 013°14'0 0.0
2017-Apr-15 06:57N 45°48' E 013°14'0 0.0
2017-Apr-15 06:28N 45°48' E 013°14'0 0.0
2017-Apr-15 05:58N 45°48' E 013°14'0 0.0
2017-Apr-15 05:16N 45°48' E 013°14'0 0.0
2017-Apr-15 04:49N 45°48' E 013°14'0 0.0
2017-Apr-15 04:25N 45°48' E 013°14'0 0.0
2017-Apr-15 03:58N 45°48' E 013°14'0 0.0
2017-Apr-15 03:28N 45°48' E 013°14'0 0.0
2017-Apr-15 02:56N 45°48' E 013°14'0 0.0
2017-Apr-15 02:29N 45°48' E 013°14'0 0.0
2017-Apr-15 01:50N 45°48' E 013°14'0 0.0
2017-Apr-15 01:29N 45°48' E 013°14'0 0.0
2017-Apr-15 00:58N 45°48' E 013°14'0 0.0
2017-Apr-15 00:28N 45°48' E 013°14'0 0.0
2017-Apr-15 00:00N 45°48' E 013°14'0 0.0
2017-Apr-14 23:30N 45°48' E 013°14'0 0.0
2017-Apr-14 22:55N 45°48' E 013°14'0 0.0
2017-Apr-14 22:28N 45°48' E 013°14'0 0.0
2017-Apr-14 22:00N 45°48' E 013°14'0 0.0
2017-Apr-14 21:30N 45°48' E 013°14'0 0.0
2017-Apr-14 20:52N 45°48' E 013°14'0 0.0
2017-Apr-14 20:24N 45°48' E 013°14'0 0.0
2017-Apr-14 20:00N 45°48' E 013°14'0 0.0
2017-Apr-14 19:26N 45°48' E 013°14'0 0.0
2017-Apr-14 18:53N 45°48' E 013°14'0 0.0
2017-Apr-14 18:30N 45°48' E 013°14'0 0.0
2017-Apr-14 18:00N 45°48' E 013°14'0 0.0
2017-Apr-14 17:30N 45°48' E 013°14'0 0.0
2017-Apr-14 16:55N 45°48' E 013°14'0 0.0
2017-Apr-14 16:29N 45°48' E 013°14'0 0.0
2017-Apr-14 15:59N 45°48' E 013°14'0 0.0
2017-Apr-14 15:13N 45°48' E 013°14'0 0.0
2017-Apr-14 14:53N 45°48' E 013°14'0 0.0
2017-Apr-14 14:28N 45°48' E 013°14'0 0.0
2017-Apr-14 13:25N 45°48' E 013°14'0 0.0
2017-Apr-14 12:53N 45°48' E 013°14'0 0.0
2017-Apr-14 12:30N 45°48' E 013°14'0 0.0
2017-Apr-14 11:59N 45°48' E 013°14'0 0.0
2017-Apr-14 11:28N 45°48' E 013°14'0 0.0
2017-Apr-14 10:57N 45°48' E 013°14'0 0.0
2017-Apr-14 10:30N 45°48' E 013°14'0 0.0
2017-Apr-14 10:00N 45°48' E 013°14'0 0.0
2017-Apr-14 09:30N 45°48' E 013°14'0 0.0
2017-Apr-14 08:59N 45°48' E 013°14'0 0.0
2017-Apr-14 08:29N 45°48' E 013°14'1 2.9
2017-Apr-14 08:01N 45°47' E 013°15'4 8.7
2017-Apr-14 07:30N 45°42' E 013°15'4 7.4
2017-Apr-14 07:00N 45°39' E 013°16'4 8.5
2017-Apr-14 06:30N 45°35' E 013°17'4 8.7
2017-Apr-14 06:00N 45°31' E 013°14'5 9.0
2017-Apr-14 05:30N 45°26' E 013°11'5 9.2
2017-Apr-14 05:00N 45°22' E 013°11'5 9.8
2017-Apr-14 04:30N 45°17' E 013°13'5 9.7
2017-Apr-14 04:00N 45°12' E 013°15'5 9.4
2017-Apr-14 03:30N 45°08' E 013°16'5 9.1
2017-Apr-14 03:01N 45°03' E 013°18'4 8.8
2017-Apr-14 02:30N 44°59' E 013°19'4 8.9
2017-Apr-14 02:00N 44°55' E 013°23'4 8.7
2017-Apr-14 01:30N 44°52' E 013°26'4 8.9
2017-Apr-14 01:00N 44°48' E 013°30'4 9.0
2017-Apr-14 00:30N 44°45' E 013°34'5 9.0
2017-Apr-14 00:00N 44°41' E 013°37'4 8.8
2017-Apr-13 23:30N 44°37' E 013°41'5 9.0
2017-Apr-13 23:00N 44°34' E 013°44'4 9.0
2017-Apr-13 22:30N 44°30' E 013°48'5 9.1
2017-Apr-13 22:00N 44°26' E 013°51'5 9.3
2017-Apr-13 21:30N 44°22' E 013°55'5 9.3
2017-Apr-13 21:00N 44°18' E 013°58'5 9.4
2017-Apr-13 20:31N 44°14' E 014°02'  

Dump ship's entire track history